createdAt,value
2022-11-17T00:01:21.627Z,88.52
2022-11-17T00:03:49.554Z,87.58
2022-11-17T00:06:20.324Z,87.66
2022-11-17T00:08:47.624Z,87.22
2022-11-17T00:11:14.248Z,88.03
2022-11-17T00:13:59.193Z,88.30
2022-11-17T00:16:25.724Z,88.75
2022-11-17T00:19:10.882Z,88.98
2022-11-17T00:21:37.702Z,88.54
2022-11-17T00:24:04.347Z,89.13
2022-11-17T00:26:33.141Z,89.82
2022-11-17T00:29:05.045Z,88.62
2022-11-17T00:31:52.768Z,88.82
2022-11-17T00:34:22.044Z,88.41
2022-11-17T00:36:51.022Z,88.95
2022-11-17T00:39:20.267Z,89.01
2022-11-17T00:41:47.085Z,89.21
2022-11-17T00:44:14.512Z,89.71
2022-11-17T00:46:41.892Z,88.87
2022-11-17T00:49:10.224Z,89.07
2022-11-17T00:51:37.364Z,90.23
2022-11-17T00:54:05.940Z,89.69
2022-11-17T00:56:32.596Z,90.20
2022-11-17T00:58:59.657Z,89.69
2022-11-17T01:01:26.374Z,89.33
2022-11-17T01:04:02.924Z,89.98
2022-11-17T01:06:35.853Z,88.77
2022-11-17T01:09:04.937Z,89.09
2022-11-17T01:11:31.999Z,89.16
2022-11-17T01:14:00.188Z,89.70
2022-11-17T01:16:27.931Z,89.49
2022-11-17T01:18:54.517Z,89.68
2022-11-17T01:21:25.869Z,89.20
2022-11-17T01:23:54.853Z,89.78
2022-11-17T01:26:24.558Z,89.24
2022-11-17T01:28:52.061Z,89.43
2022-11-17T01:31:23.934Z,89.79
2022-11-17T01:33:50.627Z,89.26
2022-11-17T01:36:22.712Z,88.99
2022-11-17T01:38:49.622Z,89.46
2022-11-17T01:41:17.657Z,89.53
2022-11-17T01:43:51.038Z,89.07
2022-11-17T01:46:27.146Z,88.17
2022-11-17T01:49:00.473Z,87.97
2022-11-17T01:51:30.014Z,89.12
2022-11-17T01:53:56.402Z,88.94
2022-11-17T01:56:31.331Z,88.17
2022-11-17T01:59:09.047Z,88.89
2022-11-17T02:01:55.497Z,89.14
2022-11-17T02:04:27.259Z,88.50
2022-11-17T02:07:01.268Z,88.80
2022-11-17T02:09:28.272Z,88.39
2022-11-17T02:11:58.758Z,88.26
2022-11-17T02:14:25.294Z,88.37
2022-11-17T02:16:51.861Z,87.45
2022-11-17T02:19:21.158Z,87.66
2022-11-17T02:21:50.665Z,88.00
2022-11-17T02:24:23.173Z,88.50
2022-11-17T02:27:01.198Z,88.41
2022-11-17T02:29:39.576Z,87.76
2022-11-17T02:32:27.995Z,88.37
2022-11-17T02:35:15.807Z,87.75
2022-11-17T02:37:48.285Z,88.65
2022-11-17T02:40:23.552Z,88.09
2022-11-17T02:43:19.004Z,87.95
2022-11-17T02:45:50.294Z,88.08
2022-11-17T02:48:25.276Z,88.73
2022-11-17T02:50:54.686Z,88.82
2022-11-17T02:53:24.176Z,88.31
2022-11-17T02:55:51.400Z,88.57
2022-11-17T02:58:18.357Z,88.99
2022-11-17T03:00:54.219Z,88.56
2022-11-17T03:03:42.017Z,88.88
2022-11-17T03:06:51.573Z,89.16
2022-11-17T03:09:30.173Z,88.49
2022-11-17T03:12:21.962Z,88.33
2022-11-17T03:15:10.386Z,88.85
2022-11-17T03:17:44.643Z,88.48
2022-11-17T03:20:20.457Z,88.13
2022-11-17T03:22:52.734Z,88.34
2022-11-17T03:25:23.185Z,88.79
2022-11-17T03:27:55.951Z,89.03
2022-11-17T03:30:24.480Z,89.22
2022-11-17T03:32:55.753Z,88.78
2022-11-17T03:35:27.893Z,89.12
2022-11-17T03:37:58.276Z,89.66
2022-11-17T03:40:29.171Z,89.06
2022-11-17T03:43:00.542Z,89.26
2022-11-17T03:45:30.111Z,89.34
2022-11-17T03:48:02.871Z,88.72
2022-11-17T03:50:36.883Z,88.09
2022-11-17T03:53:05.079Z,88.39
2022-11-17T03:55:41.590Z,87.28
2022-11-17T03:58:14.666Z,87.85
2022-11-17T04:00:43.125Z,87.48
2022-11-17T04:03:09.799Z,88.61
2022-11-17T04:05:36.331Z,88.89
2022-11-17T04:08:02.804Z,89.35
2022-11-17T04:10:29.275Z,88.97
2022-11-17T04:13:14.412Z,89.02
2022-11-17T04:15:59.320Z,90.12
2022-11-17T04:18:26.973Z,89.75
2022-11-17T04:20:56.217Z,88.90
2022-11-17T04:23:24.182Z,88.29
2022-11-17T04:26:14.495Z,89.14
2022-11-17T04:28:44.869Z,89.78
2022-11-17T04:31:27.317Z,88.33
2022-11-17T04:33:56.378Z,89.38
2022-11-17T04:36:25.966Z,89.25
2022-11-17T04:38:55.043Z,88.86
2022-11-17T04:41:42.123Z,88.00
2022-11-17T04:44:10.250Z,87.88
2022-11-17T04:46:38.737Z,89.24
2022-11-17T04:49:05.763Z,89.09
2022-11-17T04:51:33.274Z,89.31
2022-11-17T04:54:00.693Z,88.74
2022-11-17T04:56:27.651Z,89.10
2022-11-17T04:58:54.110Z,88.84
2022-11-17T05:01:22.380Z,88.47
2022-11-17T05:03:57.229Z,88.45
2022-11-17T05:06:29.648Z,88.95
2022-11-17T05:08:56.597Z,89.24
2022-11-17T05:11:45.117Z,89.23
2022-11-17T05:14:13.309Z,89.00
2022-11-17T05:17:00.528Z,88.25
2022-11-17T05:19:31.235Z,88.54
2022-11-17T05:21:57.801Z,88.53
2022-11-17T05:24:24.406Z,87.89
2022-11-17T05:26:50.971Z,87.32
2022-11-17T05:29:20.010Z,86.08
2022-11-17T05:31:46.926Z,86.67
2022-11-17T05:34:17.347Z,87.08
2022-11-17T05:36:44.333Z,85.80
2022-11-17T05:39:10.904Z,85.50
2022-11-17T05:41:37.407Z,86.89
2022-11-17T05:44:04.728Z,85.89
2022-11-17T05:46:31.289Z,86.76
2022-11-17T05:48:57.894Z,86.39
2022-11-17T05:51:24.639Z,86.35
2022-11-17T05:53:51.226Z,85.95
2022-11-17T05:56:29.899Z,86.46
2022-11-17T05:59:17.460Z,85.39
2022-11-17T06:02:04.790Z,85.94
2022-11-17T06:04:31.526Z,86.32
2022-11-17T06:07:00.046Z,85.71
2022-11-17T06:09:31.325Z,86.30
2022-11-17T06:12:02.564Z,85.14
2022-11-17T06:14:32.474Z,85.66
2022-11-17T06:17:04.701Z,85.93
2022-11-17T06:19:38.554Z,86.55
2022-11-17T06:22:12.135Z,86.30
2022-11-17T06:24:41.706Z,86.58
2022-11-17T06:27:08.377Z,86.27
2022-11-17T06:29:39.423Z,86.36
2022-11-17T06:32:09.527Z,86.36
2022-11-17T06:34:36.172Z,86.44
2022-11-17T06:37:02.761Z,85.66
2022-11-17T06:39:29.264Z,85.42
2022-11-17T06:41:55.765Z,86.33
2022-11-17T06:44:22.246Z,85.68
2022-11-17T06:46:49.277Z,84.98
2022-11-17T06:49:16.056Z,85.79
2022-11-17T06:51:45.408Z,85.29
2022-11-17T06:54:14.632Z,85.58
2022-11-17T06:56:41.771Z,85.58
2022-11-17T06:59:08.355Z,84.75
2022-11-17T07:01:35.046Z,85.02
2022-11-17T07:04:01.623Z,85.48
2022-11-17T07:06:28.160Z,85.20
2022-11-17T07:08:54.764Z,84.25
2022-11-17T07:11:21.366Z,84.32
2022-11-17T07:13:47.883Z,84.71
2022-11-17T07:16:23.015Z,83.89
2022-11-17T07:18:50.067Z,82.92
2022-11-17T07:21:16.639Z,82.37
2022-11-17T07:23:44.822Z,83.10
2022-11-17T07:26:11.866Z,82.67
2022-11-17T07:28:38.811Z,82.52
2022-11-17T07:31:08.014Z,82.06
2022-11-17T07:33:35.520Z,83.04
2022-11-17T07:36:07.226Z,82.20
2022-11-17T07:38:35.249Z,82.00
2022-11-17T07:41:04.180Z,82.64
2022-11-17T07:43:31.335Z,82.69
2022-11-17T07:45:57.911Z,81.83
2022-11-17T07:48:24.568Z,81.06
2022-11-17T07:50:51.149Z,81.52
2022-11-17T07:53:17.948Z,81.72
2022-11-17T07:55:44.783Z,81.43
2022-11-17T07:58:11.575Z,81.70
2022-11-17T08:00:38.179Z,81.28
2022-11-17T08:03:05.053Z,81.50
2022-11-17T08:05:41.641Z,82.73
2022-11-17T08:08:09.818Z,81.07
2022-11-17T08:10:36.438Z,80.58
2022-11-17T08:13:03.001Z,81.46
2022-11-17T08:15:30.043Z,80.82
2022-11-17T08:17:59.851Z,80.57
2022-11-17T08:20:28.687Z,80.57
2022-11-17T08:22:55.969Z,81.46
2022-11-17T08:25:24.451Z,80.07
2022-11-17T08:27:55.150Z,81.47
2022-11-17T08:30:22.633Z,80.65
2022-11-17T08:32:52.526Z,80.38
2022-11-17T08:35:21.143Z,82.60
2022-11-17T08:37:47.938Z,80.24
2022-11-17T08:40:15.025Z,80.90
2022-11-17T08:42:42.064Z,81.72
2022-11-17T08:45:09.965Z,81.42
2022-11-17T08:47:37.523Z,80.53
2022-11-17T08:50:06.166Z,80.34
2022-11-17T08:52:32.829Z,81.59
2022-11-17T08:54:59.460Z,81.63
2022-11-17T08:57:26.117Z,81.97
2022-11-17T08:59:52.641Z,80.68
2022-11-17T09:02:19.215Z,81.78
2022-11-17T09:04:46.562Z,80.95
2022-11-17T09:07:13.447Z,80.51
2022-11-17T09:09:40.103Z,79.85
2022-11-17T09:12:06.746Z,81.67
2022-11-17T09:14:33.447Z,81.56
2022-11-17T09:16:59.977Z,79.70
2022-11-17T09:19:26.874Z,79.67
2022-11-17T09:21:53.376Z,80.37
2022-11-17T09:24:19.859Z,80.81
2022-11-17T09:26:46.415Z,80.38
2022-11-17T09:29:13.069Z,79.70
2022-11-17T09:31:39.624Z,80.09
2022-11-17T09:34:06.349Z,80.98
2022-11-17T09:36:33.799Z,81.59
2022-11-17T09:39:00.996Z,81.38
2022-11-17T09:41:51.599Z,80.32
2022-11-17T09:44:34.303Z,80.50
2022-11-17T09:47:06.162Z,80.75
2022-11-17T09:49:56.755Z,80.48
2022-11-17T09:52:53.823Z,79.66
2022-11-17T09:55:20.277Z,80.29
2022-11-17T09:57:52.114Z,81.57
2022-11-17T10:00:19.547Z,80.55
2022-11-17T10:02:47.709Z,79.74
2022-11-17T10:05:26.151Z,79.29
2022-11-17T10:07:54.960Z,80.06
2022-11-17T10:10:35.135Z,79.97
2022-11-17T10:13:04.862Z,78.86
2022-11-17T10:15:42.436Z,79.80
2022-11-17T10:18:13.639Z,79.09
2022-11-17T10:20:41.340Z,79.99
2022-11-17T10:23:13.610Z,79.62
2022-11-17T10:25:55.720Z,79.52
2022-11-17T10:28:31.152Z,78.83
2022-11-17T10:31:01.501Z,79.44
2022-11-17T10:33:53.765Z,78.63
2022-11-17T10:36:28.820Z,80.32
2022-11-17T10:38:57.545Z,79.40
2022-11-17T10:41:26.949Z,80.37
2022-11-17T10:44:04.373Z,81.65
2022-11-17T10:46:41.547Z,81.59
2022-11-17T10:49:34.167Z,81.74
2022-11-17T10:52:23.317Z,81.67
2022-11-17T10:54:49.959Z,81.73
2022-11-17T10:57:26.689Z,81.65
2022-11-17T10:59:57.585Z,81.79
2022-11-17T11:02:31.153Z,81.45
2022-11-17T11:05:19.904Z,81.34
2022-11-17T11:07:46.648Z,80.85
2022-11-17T11:10:20.298Z,81.74
2022-11-17T11:13:31.279Z,81.52
2022-11-17T11:15:57.857Z,81.23
2022-11-17T11:18:27.647Z,80.93
2022-11-17T11:21:09.005Z,81.78
2022-11-17T11:23:39.695Z,80.82
2022-11-17T11:26:27.481Z,82.29
2022-11-17T11:29:03.939Z,81.71
2022-11-17T11:31:42.498Z,82.60
2022-11-17T11:34:15.349Z,81.19
2022-11-17T11:36:53.949Z,81.65
2022-11-17T11:39:44.000Z,83.07
2022-11-17T11:42:10.439Z,82.30
2022-11-17T11:44:49.174Z,82.17
2022-11-17T11:47:27.534Z,81.07
2022-11-17T11:50:02.975Z,79.97
2022-11-17T11:52:38.030Z,79.47
2022-11-17T11:55:17.379Z,79.09
2022-11-17T11:57:54.579Z,78.85
2022-11-17T12:00:21.358Z,79.45
2022-11-17T12:02:58.645Z,78.27
2022-11-17T12:05:25.147Z,78.89
2022-11-17T12:08:10.201Z,78.58
2022-11-17T12:10:59.057Z,79.61
2022-11-17T12:13:26.513Z,80.35
2022-11-17T12:16:40.927Z,80.58
2022-11-17T12:19:44.785Z,81.42
2022-11-17T12:22:29.556Z,82.49
2022-11-17T12:25:20.888Z,81.97
2022-11-17T12:27:47.416Z,82.36
2022-11-17T12:30:32.693Z,82.23
2022-11-17T12:33:09.291Z,83.07
2022-11-17T12:35:40.437Z,83.10
2022-11-17T12:38:12.999Z,82.65
2022-11-17T12:40:39.567Z,83.30
2022-11-17T12:43:33.010Z,83.93
2022-11-17T12:46:04.221Z,85.48
2022-11-17T12:48:35.307Z,85.22
2022-11-17T12:51:33.239Z,87.46
2022-11-17T12:54:06.928Z,86.88
2022-11-17T12:57:12.071Z,85.96
2022-11-17T13:00:03.253Z,86.27
2022-11-17T13:02:56.027Z,86.18
2022-11-17T13:05:28.009Z,87.42
2022-11-17T13:08:21.106Z,87.42
2022-11-17T13:10:47.824Z,87.45
2022-11-17T13:13:24.684Z,87.34
2022-11-17T13:15:53.937Z,87.38
2022-11-17T13:18:23.469Z,87.44
2022-11-17T13:20:50.105Z,88.04
2022-11-17T13:23:23.419Z,87.67
2022-11-17T13:26:55.471Z,87.55
2022-11-17T13:29:23.103Z,88.37
2022-11-17T13:31:49.689Z,88.43
2022-11-17T13:34:21.212Z,87.90
2022-11-17T13:36:59.750Z,87.78
2022-11-17T13:39:28.056Z,88.35
2022-11-17T13:41:56.370Z,88.00
2022-11-17T13:44:25.627Z,88.52
2022-11-17T13:46:52.228Z,88.03
2022-11-17T13:49:38.131Z,87.78
2022-11-17T13:52:40.468Z,88.25
2022-11-17T13:55:18.107Z,87.97
2022-11-17T13:57:55.443Z,87.63
2022-11-17T14:00:22.545Z,87.95
2022-11-17T14:03:06.200Z,87.54
2022-11-17T14:05:33.238Z,87.70
2022-11-17T14:08:13.369Z,88.13
2022-11-17T14:10:40.143Z,88.46
2022-11-17T14:13:06.620Z,88.55
2022-11-17T14:15:42.870Z,87.72
2022-11-17T14:18:30.718Z,88.01
2022-11-17T14:21:17.269Z,88.78
2022-11-17T14:23:45.141Z,88.35
2022-11-17T14:26:23.435Z,88.42
2022-11-17T14:28:51.561Z,89.10
2022-11-17T14:31:18.757Z,89.53
2022-11-17T14:33:45.589Z,89.10
2022-11-17T14:36:15.843Z,87.80
2022-11-17T14:38:44.602Z,88.28
2022-11-17T14:41:11.257Z,88.70
2022-11-17T14:43:37.881Z,88.73
2022-11-17T14:46:04.530Z,87.92
2022-11-17T14:48:31.274Z,87.64
2022-11-17T14:50:59.712Z,89.01
2022-11-17T14:53:26.703Z,88.87
2022-11-17T14:55:53.670Z,88.30
2022-11-17T14:58:20.624Z,88.94
2022-11-17T15:00:47.313Z,88.39
2022-11-17T15:03:13.976Z,88.48
2022-11-17T15:05:46.147Z,88.15
2022-11-17T15:08:13.704Z,87.49
2022-11-17T15:10:46.528Z,87.45
2022-11-17T15:13:13.098Z,87.69
2022-11-17T15:15:40.607Z,88.38
2022-11-17T15:18:07.302Z,88.42
2022-11-17T15:20:33.830Z,88.17
2022-11-17T15:23:03.240Z,87.51
2022-11-17T15:25:30.730Z,87.90
2022-11-17T15:27:57.495Z,87.72
2022-11-17T15:30:24.202Z,87.93
2022-11-17T15:32:50.918Z,87.61
2022-11-17T15:35:17.452Z,87.61
2022-11-17T15:37:43.989Z,87.13
2022-11-17T15:40:13.947Z,87.47
2022-11-17T15:42:43.029Z,87.56
2022-11-17T15:45:09.961Z,86.96
2022-11-17T15:47:36.570Z,87.46
2022-11-17T15:50:03.131Z,87.63
2022-11-17T15:52:56.723Z,87.55
2022-11-17T15:55:16.152Z,87.22
2022-11-17T15:57:43.301Z,87.77
2022-11-17T16:00:10.266Z,88.66
2022-11-17T16:02:36.798Z,88.12
2022-11-17T16:05:03.589Z,88.14
2022-11-17T16:07:30.233Z,88.29
2022-11-17T16:09:56.923Z,87.35
2022-11-17T16:12:23.909Z,87.23
2022-11-17T16:14:50.411Z,87.84
2022-11-17T16:17:17.015Z,87.42
2022-11-17T16:19:43.798Z,87.85
2022-11-17T16:22:10.292Z,87.62
2022-11-17T16:24:36.790Z,87.96
2022-11-17T16:27:03.393Z,87.75
2022-11-17T16:29:29.935Z,87.75
2022-11-17T16:31:56.475Z,87.51
2022-11-17T16:34:23.052Z,88.14
2022-11-17T16:36:49.585Z,88.65
2022-11-17T16:39:17.314Z,88.93
2022-11-17T16:41:50.197Z,88.73
2022-11-17T16:44:19.339Z,87.96
2022-11-17T16:46:48.149Z,88.03
2022-11-17T16:49:17.168Z,88.95
2022-11-17T16:51:49.158Z,89.21
2022-11-17T16:54:16.189Z,89.34
2022-11-17T16:56:42.781Z,89.13
2022-11-17T16:59:11.070Z,88.94
2022-11-17T17:01:37.931Z,88.96
2022-11-17T17:04:09.940Z,88.11
2022-11-17T17:06:40.019Z,87.75
2022-11-17T17:09:08.455Z,88.64
2022-11-17T17:11:36.462Z,88.07
2022-11-17T17:14:04.761Z,88.83
2022-11-17T17:16:33.337Z,88.07
2022-11-17T17:19:02.026Z,87.72
2022-11-17T17:21:29.187Z,88.53
2022-11-17T17:23:55.747Z,88.58
2022-11-17T17:26:24.765Z,87.94
2022-11-17T17:28:53.919Z,88.05
2022-11-17T17:31:22.522Z,88.27
2022-11-17T17:33:50.530Z,87.87
2022-11-17T17:36:22.579Z,87.87
2022-11-17T17:38:55.106Z,87.89
2022-11-17T17:41:24.874Z,88.11
2022-11-17T17:44:01.239Z,87.71
2022-11-17T17:46:31.857Z,87.71
2022-11-17T17:48:58.643Z,87.49
2022-11-17T17:51:27.442Z,87.35
2022-11-17T17:53:55.939Z,87.41
2022-11-17T17:56:23.113Z,87.22
2022-11-17T17:58:51.605Z,87.04
2022-11-17T18:01:24.554Z,86.99
2022-11-17T18:03:53.729Z,87.31
2022-11-17T18:06:21.670Z,87.22
2022-11-17T18:08:49.268Z,87.32
2022-11-17T18:11:20.293Z,87.54
2022-11-17T18:13:51.830Z,87.35
2022-11-17T18:16:26.838Z,87.21
2022-11-17T18:18:59.135Z,87.68
2022-11-17T18:21:26.621Z,87.31
2022-11-17T18:23:54.425Z,87.54
2022-11-17T18:26:26.712Z,88.26
2022-11-17T18:28:56.284Z,88.12
2022-11-17T18:31:25.128Z,88.95
2022-11-17T18:33:53.345Z,89.32
2022-11-17T18:36:21.194Z,88.72
2022-11-17T18:38:48.000Z,88.92
2022-11-17T18:41:17.058Z,89.55
2022-11-17T18:43:44.257Z,89.99
2022-11-17T18:46:13.320Z,89.69
2022-11-17T18:48:42.159Z,89.47
2022-11-17T18:51:20.871Z,89.22
2022-11-17T18:53:53.215Z,89.35
2022-11-17T18:56:22.936Z,90.43
2022-11-17T18:58:49.886Z,90.02
2022-11-17T19:01:24.968Z,90.60
2022-11-17T19:03:53.570Z,90.09
2022-11-17T19:06:22.644Z,90.27
2022-11-17T19:08:50.302Z,90.07
2022-11-17T19:11:18.651Z,89.93
2022-11-17T19:13:45.906Z,89.92
2022-11-17T19:16:15.010Z,90.18
2022-11-17T19:18:42.051Z,90.05
2022-11-17T19:21:10.584Z,90.06
2022-11-17T19:23:39.579Z,89.96
2022-11-17T19:26:08.639Z,89.51
2022-11-17T19:28:35.765Z,89.46
2022-11-17T19:31:07.503Z,89.09
2022-11-17T19:33:36.031Z,89.04
2022-11-17T19:36:11.624Z,88.98
2022-11-17T19:38:39.587Z,88.54
2022-11-17T19:41:08.243Z,88.65
2022-11-17T19:43:40.318Z,88.74
2022-11-17T19:46:12.547Z,88.80
2022-11-17T19:48:39.834Z,88.14
2022-11-17T19:51:28.004Z,88.44
2022-11-17T19:53:56.222Z,88.67
2022-11-17T19:56:24.195Z,88.40
2022-11-17T19:58:51.263Z,88.50
2022-11-17T20:01:20.072Z,89.05
2022-11-17T20:03:47.205Z,89.53
2022-11-17T20:06:16.449Z,88.97
2022-11-17T20:08:43.992Z,89.54
2022-11-17T20:11:16.752Z,89.20
2022-11-17T20:13:44.300Z,88.73
2022-11-17T20:16:14.041Z,89.25
2022-11-17T20:18:44.847Z,88.99
2022-11-17T20:21:14.011Z,89.30
2022-11-17T20:23:40.993Z,89.38
2022-11-17T20:26:11.708Z,89.10
2022-11-17T20:28:38.914Z,89.07
2022-11-17T20:31:10.503Z,88.93
2022-11-17T20:33:41.772Z,88.57
2022-11-17T20:36:11.581Z,88.88
2022-11-17T20:38:38.081Z,89.01
2022-11-17T20:41:05.875Z,88.91
2022-11-17T20:43:34.194Z,88.92
2022-11-17T20:46:01.359Z,88.80
2022-11-17T20:48:29.157Z,89.27
2022-11-17T20:51:01.215Z,88.93
2022-11-17T20:53:28.427Z,88.98
2022-11-17T20:55:56.562Z,88.73
2022-11-17T20:58:24.124Z,88.74
2022-11-17T21:00:50.955Z,88.83
2022-11-17T21:03:17.993Z,88.99
2022-11-17T21:05:44.646Z,88.55
2022-11-17T21:08:11.567Z,88.78
2022-11-17T21:10:38.185Z,88.75
2022-11-17T21:13:04.772Z,88.30
2022-11-17T21:15:31.393Z,88.43
2022-11-17T21:18:16.515Z,88.39
2022-11-17T21:20:43.057Z,88.27
2022-11-17T21:23:12.457Z,88.33
2022-11-17T21:25:39.220Z,88.54
2022-11-17T21:28:06.041Z,88.11
2022-11-17T21:30:33.633Z,88.36
2022-11-17T21:33:00.207Z,88.22
2022-11-17T21:35:26.782Z,88.31
2022-11-17T21:37:53.353Z,87.77
2022-11-17T21:40:19.893Z,88.29
2022-11-17T21:42:46.479Z,88.17
2022-11-17T21:45:13.240Z,87.76
2022-11-17T21:47:39.872Z,87.79
2022-11-17T21:50:07.133Z,87.55
2022-11-17T21:52:33.714Z,87.90
2022-11-17T21:55:00.468Z,88.06
2022-11-17T21:57:27.212Z,87.67
2022-11-17T21:59:54.021Z,88.34
2022-11-17T22:02:22.147Z,87.39
2022-11-17T22:04:48.704Z,87.88
2022-11-17T22:07:15.336Z,87.58
2022-11-17T22:09:41.861Z,87.94
2022-11-17T22:12:08.401Z,87.41
2022-11-17T22:14:34.867Z,87.98
2022-11-17T22:17:01.710Z,87.38
2022-11-17T22:19:29.426Z,87.99
2022-11-17T22:21:56.097Z,87.11
2022-11-17T22:24:22.776Z,87.29
2022-11-17T22:26:51.441Z,86.99
2022-11-17T22:29:21.617Z,87.08
2022-11-17T22:31:48.983Z,87.71
2022-11-17T22:34:16.650Z,87.38
2022-11-17T22:36:43.242Z,87.40
2022-11-17T22:39:09.845Z,87.37
2022-11-17T22:41:36.434Z,88.14
2022-11-17T22:44:03.327Z,87.83
2022-11-17T22:46:29.841Z,87.36
2022-11-17T22:48:56.539Z,87.63
2022-11-17T22:51:42.838Z,87.29
2022-11-17T22:54:09.540Z,87.69
2022-11-17T22:56:36.119Z,87.38
2022-11-17T22:59:02.813Z,87.98
2022-11-17T23:01:29.377Z,88.39
2022-11-17T23:03:55.949Z,88.01
2022-11-17T23:06:22.863Z,87.29
2022-11-17T23:08:50.061Z,87.94
2022-11-17T23:14:07.713Z,87.65
2022-11-17T23:16:34.334Z,88.13
2022-11-17T23:19:00.857Z,88.97
2022-11-17T23:21:27.355Z,88.86
2022-11-17T23:23:53.939Z,88.14
2022-11-17T23:26:20.458Z,87.56
2022-11-17T23:28:47.124Z,88.24
2022-11-17T23:31:15.576Z,87.78
2022-11-17T23:33:44.571Z,86.93
2022-11-17T23:36:16.711Z,87.08
2022-11-17T23:38:43.269Z,87.48
2022-11-17T23:41:13.289Z,87.03
2022-11-17T23:43:40.440Z,87.23
2022-11-17T23:46:13.162Z,88.05
2022-11-17T23:48:40.415Z,88.64
2022-11-17T23:51:12.677Z,87.38
2022-11-17T23:53:39.448Z,88.31
2022-11-17T23:56:07.028Z,89.02
2022-11-17T23:58:33.681Z,89.51
